Time;durP1;ratioP1;P1;durP2;ratioP2;P2;SDS_P1;SDS_P2;PMS_P1;PMS_P2;Temp;Humidity;BMP_temperature;BMP_pressure;BME280_temperature;BME280_humidity;BME280_pressure;Samples;Min_cycle;Max_cycle;Signal;HPM_P1;HPM_P2
2021/08/19 00:00:46;;;;;;;14.40;10.73;;;20.40;99.90;;;20.78;73.97;101261.50;5028874;28;20067;-67
2021/08/19 00:03:14;;;;;;;13.73;10.93;;;20.30;99.90;;;20.77;74.24;101257.03;5024456;28;20132;-66
2021/08/19 00:05:43;;;;;;;12.75;11.07;;;20.30;99.90;;;20.78;74.39;101261.50;5023942;28;20382;-66
2021/08/19 00:08:11;;;;;;;16.98;11.32;;;20.40;99.90;;;20.73;74.57;101259.94;5024332;28;20077;-67
2021/08/19 00:10:40;;;;;;;14.50;11.43;;;20.30;99.90;;;20.62;74.63;101242.41;5024438;28;20091;-66
2021/08/19 00:13:08;;;;;;;19.65;12.00;;;20.30;99.90;;;20.76;74.60;101259.78;5024548;28;20390;-67
2021/08/19 00:15:37;;;;;;;16.77;12.00;;;20.30;99.90;;;20.74;74.63;101246.41;5024527;28;20300;-66
2021/08/19 00:18:06;;;;;;;14.70;11.23;;;20.40;99.90;;;20.64;74.83;101247.72;5030497;28;20056;-67
2021/08/19 00:20:35;;;;;;;13.63;11.00;;;20.30;99.90;;;20.67;74.82;101259.22;5033385;28;20102;-66
2021/08/19 00:23:03;;;;;;;13.77;11.13;;;20.20;99.90;;;20.68;74.78;101255.59;5032117;28;20515;-66
2021/08/19 00:25:32;;;;;;;14.93;10.85;;;20.30;99.90;;;20.71;74.73;101251.94;5033069;28;20050;-66
2021/08/19 00:28:01;;;;;;;15.07;11.18;;;20.30;99.90;;;20.59;74.78;101236.28;5033217;28;20041;-66
2021/08/19 00:30:29;;;;;;;15.65;11.60;;;20.30;99.90;;;20.72;74.64;101250.09;5033064;28;20144;-66
2021/08/19 00:32:57;;;;;;;13.98;11.05;;;20.30;99.90;;;20.67;74.80;101248.47;5033628;28;20078;-66
2021/08/19 00:35:29;;;;;;;15.73;12.02;;;20.30;99.90;;;20.74;74.76;101257.16;5032884;28;20067;-66
2021/08/19 00:37:57;;;;;;;17.27;12.50;;;20.30;99.90;;;20.70;74.74;101255.53;5033101;28;20041;-66
2021/08/19 00:40:25;;;;;;;15.20;12.23;;;20.30;99.90;;;20.70;74.88;101250.16;5031715;28;20053;-66
2021/08/19 00:42:55;;;;;;;17.23;13.10;;;20.30;99.90;;;20.66;74.91;101241.34;5033170;28;20116;-66
2021/08/19 00:45:25;;;;;;;15.45;12.73;;;20.30;99.90;;;20.71;74.80;101243.88;5033044;28;20042;-66
2021/08/19 00:47:54;;;;;;;16.20;12.05;;;20.30;99.90;;;20.66;75.03;101245.84;5032730;28;20536;-66
2021/08/19 00:50:25;;;;;;;17.92;12.93;;;20.30;99.90;;;20.54;75.08;101214.94;5032530;28;20053;-66
2021/08/19 00:52:56;;;;;;;16.33;13.18;;;20.30;99.90;;;20.74;74.99;101241.03;5033537;28;20081;-66
2021/08/19 00:55:24;;;;;;;;;;;20.30;99.90;;;20.68;74.75;101222.47;5033067;28;20049;-66
2021/08/19 00:57:53;;;;;;;15.93;12.18;;;20.40;99.90;;;20.77;74.84;101232.81;5033192;28;19921;-66
2021/08/19 01:00:22;;;;;;;18.48;12.07;;;20.40;99.90;;;20.78;74.90;101242.66;5032706;28;20044;-66
2021/08/19 01:02:54;;;;;;;15.07;11.73;;;20.40;99.90;;;20.77;74.84;101237.34;5032720;28;20053;-67
2021/08/19 01:05:24;;;;;;;15.90;11.95;;;20.40;99.90;;;20.76;74.98;101235.59;5032888;28;20404;-66
2021/08/19 01:07:52;;;;;;;16.08;12.88;;;20.30;99.90;;;20.68;75.26;101230.53;5032451;28;20029;-66
2021/08/19 01:10:22;;;;;;;15.25;12.15;;;20.30;99.90;;;20.72;75.19;101232.16;5032749;28;20052;-66
2021/08/19 01:12:51;;;;;;;15.20;12.25;;;20.30;99.90;;;20.71;75.17;101233.09;5032749;28;20514;-66
2021/08/19 01:15:20;;;;;;;15.80;12.93;;;20.30;99.90;;;20.51;75.47;101209.69;5032468;28;20045;-67
2021/08/19 01:17:55;;;;;;;18.33;12.60;;;20.30;99.90;;;20.52;75.51;101211.44;5032348;28;20037;-66
2021/08/19 01:20:27;;;;;;;19.40;13.68;;;20.20;99.90;;;20.59;75.49;101237.16;5032837;28;20466;-66
2021/08/19 01:22:58;;;;;;;15.52;13.45;;;20.20;99.90;;;20.45;75.86;101215.31;5032428;28;20428;-66
2021/08/19 01:25:28;;;;;;;;;;;20.20;99.90;;;20.57;75.72;101235.47;5033276;28;20094;-66
2021/08/19 01:28:00;;;;;;;19.75;14.18;;;20.20;99.90;;;20.55;75.83;101238.22;5032088;28;20286;-66
2021/08/19 01:30:28;;;;;;;17.13;13.13;;;20.10;99.90;;;20.54;75.95;101232.88;5032347;28;20045;-66
2021/08/19 01:32:56;;;;;;;19.05;13.85;;;20.10;99.90;;;20.52;75.92;101229.38;5032498;28;20142;-65
2021/08/19 01:35:29;;;;;;;16.52;13.32;;;20.10;99.90;;;20.50;76.07;101231.25;5032315;28;20128;-66
2021/08/19 01:37:57;;;;;;;19.77;14.07;;;20.10;99.90;;;20.47;76.13;101226.00;5032226;28;20045;-65
2021/08/19 01:40:25;;;;;;;16.45;13.10;;;20.10;99.90;;;20.49;76.08;101226.81;5031723;28;20139;-65
2021/08/19 01:42:53;;;;;;;17.58;13.02;;;20.10;99.90;;;20.47;76.24;101229.56;5032102;28;20069;-65
2021/08/19 01:45:24;;;;;;;17.77;13.07;;;20.10;99.90;;;20.46;75.93;101232.31;5032099;28;20046;-65
2021/08/19 01:47:52;;;;;;;17.38;13.80;;;20.10;99.90;;;20.43;76.14;101229.75;5031986;28;20120;-65
2021/08/19 01:50:21;;;;;;;17.33;11.82;;;20.00;99.90;;;20.44;76.13;101242.25;5029930;28;20467;-65
2021/08/19 01:52:49;;;;;;;19.45;13.15;;;20.00;99.90;;;20.30;76.29;101209.66;5031228;28;20077;-65
2021/08/19 01:55:18;;;;;;;15.02;12.95;;;20.00;99.90;;;20.37;76.27;101235.34;5031213;28;20095;-66
2021/08/19 01:57:48;;;;;;;18.40;13.40;;;20.00;99.90;;;20.36;76.28;101236.31;5031591;28;20045;-66
2021/08/19 02:00:18;;;;;;;17.85;13.43;;;20.00;99.90;;;20.33;76.52;101231.03;5030113;28;20053;-65
2021/08/19 02:02:48;;;;;;;18.15;13.30;;;19.90;99.90;;;20.30;76.71;101233.84;5031441;28;20076;-65
2021/08/19 02:05:18;;;;;;;15.88;12.65;;;19.90;99.90;;;20.30;76.58;101236.53;5031260;28;20073;-66
2021/08/19 02:07:46;;;;;;;18.67;13.55;;;19.90;99.90;;;20.30;76.57;101236.53;5031380;28;20080;-65
2021/08/19 02:10:14;;;;;;;19.25;13.23;;;19.90;99.90;;;20.27;76.59;101239.31;5031779;28;20377;-65
2021/08/19 02:12:43;;;;;;;21.40;13.45;;;19.90;99.90;;;20.29;76.61;101240.13;5031085;28;20120;-66
2021/08/19 02:15:13;;;;;;;18.02;13.27;;;19.90;99.90;;;20.27;76.67;101231.25;5031618;28;20409;-65
2021/08/19 02:17:41;;;;;;;17.83;13.10;;;19.80;99.90;;;20.30;76.76;101236.53;5031270;28;20053;-66
2021/08/19 02:20:12;;;;;;;18.85;12.82;;;19.90;99.90;;;20.32;76.94;101235.56;5031205;28;20106;-65
2021/08/19 02:22:41;;;;;;;15.35;12.75;;;19.90;99.90;;;20.31;77.07;101231.09;5031043;28;20102;-65
2021/08/19 02:25:11;;;;;;;16.73;13.48;;;19.90;99.90;;;20.33;77.07;101234.59;5030974;28;20116;-66
2021/08/19 02:27:39;;;;;;;24.70;13.25;;;19.90;99.90;;;20.33;77.27;101228.34;5030967;28;20072;-66
2021/08/19 02:30:09;;;;;;;19.08;13.45;;;19.90;99.90;;;20.35;77.44;101235.41;5031035;28;20099;-66
2021/08/19 02:32:38;;;;;;;15.27;13.00;;;19.90;99.90;;;20.38;77.59;101237.13;5031022;28;20057;-66
2021/08/19 02:35:08;;;;;;;19.63;13.00;;;20.00;99.90;;;20.37;77.86;101233.53;5030892;28;20556;-66
2021/08/19 02:37:38;;;;;;;19.15;12.18;;;19.90;99.90;;;20.40;77.85;101224.50;5030954;28;20480;-66
2021/08/19 02:40:08;;;;;;;17.07;12.93;;;20.00;99.90;;;20.41;77.99;101223.53;5030071;28;20125;-66
2021/08/19 02:42:37;;;;;;;14.30;12.73;;;20.00;99.90;;;20.44;78.03;101247.63;5031393;28;20114;-66
2021/08/19 02:45:06;;;;;;;20.30;12.98;;;20.00;99.90;;;20.42;78.26;101215.41;5031505;28;20049;-66
2021/08/19 02:47:34;;;;;;;17.83;12.05;;;20.00;99.90;;;20.45;78.49;101214.44;5031461;28;20041;-66
2021/08/19 02:50:03;;;;;;;16.42;11.77;;;20.00;99.90;;;20.49;78.52;101214.25;5030799;28;20050;-66
2021/08/19 02:52:31;;;;;;;18.67;12.57;;;20.00;99.90;;;20.46;78.58;101217.06;5030695;28;20124;-66
2021/08/19 02:55:01;;;;;;;14.38;11.80;;;20.10;99.90;;;20.38;78.65;101196.81;5030715;28;20488;-66
2021/08/19 02:57:30;;;;;;;20.08;13.90;;;20.10;99.90;;;20.49;78.71;101214.25;5030325;28;20046;-67
2021/08/19 02:59:58;;;;;;;15.73;12.07;;;20.10;99.90;;;20.52;78.73;101213.25;5030730;28;20087;-67
2021/08/19 03:02:27;;;;;;;15.15;11.98;;;20.10;99.90;;;20.52;78.83;101213.25;5030114;28;20048;-66
2021/08/19 03:04:57;;;;;;;21.45;13.05;;;20.10;99.90;;;20.49;78.66;101211.56;5030318;28;20117;-67
2021/08/19 03:07:25;;;;;;;18.02;12.80;;;20.10;99.90;;;19.81;78.96;101105.91;5029260;28;20125;-67
2021/08/19 03:09:53;;;;;;;17.35;12.57;;;20.10;99.90;;;20.40;79.10;101205.69;5030680;28;20103;-67
2021/08/19 03:12:23;;;;;;;17.60;12.32;;;20.00;99.90;;;20.33;79.41;101212.22;5030479;28;20114;-67
2021/08/19 03:14:51;;;;;;;18.20;13.05;;;20.00;99.90;;;20.36;79.23;101212.97;5030713;28;20110;-67
2021/08/19 03:17:20;;;;;;;21.52;11.32;;;20.00;99.90;;;20.47;78.80;101212.56;5030630;28;20037;-67
2021/08/19 03:19:48;;;;;;;14.27;11.10;;;20.00;99.90;;;20.49;78.23;101206.19;5030754;28;20082;-67
2021/08/19 03:22:17;;;;;;;15.75;11.13;;;20.10;99.90;;;20.44;77.84;101208.16;5030423;28;20041;-67
2021/08/19 03:24:45;;;;;;;18.55;11.45;;;20.00;99.90;;;20.46;77.25;101211.69;5030524;28;20096;-66
2021/08/19 03:27:19;;;;;;;12.38;10.55;;;20.00;99.90;;;20.46;76.91;101209.00;5029209;28;20045;-66
2021/08/19 03:29:52;;;;;;;13.70;11.23;;;20.10;99.90;;;20.50;76.62;101207.94;5030680;28;20042;-66
2021/08/19 03:32:20;;;;;;;13.38;11.00;;;20.10;99.90;;;20.51;75.99;101201.63;5030266;28;20045;-66
2021/08/19 03:34:49;;;;;;;13.65;11.02;;;20.10;99.90;;;20.53;75.95;101199.75;5030558;28;20050;-66
2021/08/19 03:37:17;;;;;;;14.20;10.98;;;20.20;99.90;;;20.50;75.85;101205.25;5030174;28;20145;-67
2021/08/19 03:39:46;;;;;;;13.45;10.48;;;20.20;99.90;;;20.08;75.52;101129.00;5030326;28;20102;-66
2021/08/19 03:42:17;;;;;;;13.63;9.93;;;20.20;99.90;;;20.48;75.59;101206.22;5028956;28;20049;-66
2021/08/19 03:44:45;;;;;;;12.77;9.93;;;20.20;99.90;;;20.52;75.14;101195.31;5028495;28;20184;-67
2021/08/19 03:47:15;;;;;;;13.70;10.38;;;20.20;99.90;;;20.54;74.79;101201.50;5024961;28;20042;-67
2021/08/19 03:49:43;;;;;;;12.10;9.70;;;20.20;99.90;;;20.48;74.67;101198.16;5025414;28;20461;-66
2021/08/19 03:52:11;;;;;;;9.98;8.98;;;20.20;99.90;;;20.51;74.43;101198.06;5025887;28;20102;-66
2021/08/19 03:54:40;;;;;;;10.68;9.32;;;20.20;99.90;;;20.55;74.15;101189.81;5027035;28;20370;-66
2021/08/19 03:57:08;;;;;;;10.23;8.45;;;20.20;99.90;;;20.58;73.99;101194.19;5027701;28;20075;-66
2021/08/19 03:59:39;;;;;;;9.35;8.35;;;20.20;99.90;;;20.51;73.86;101198.06;5026714;28;20093;-66
2021/08/19 04:02:07;;;;;;;10.45;8.10;;;20.20;99.90;;;20.60;73.72;101192.31;5028062;28;20049;-66
2021/08/19 04:04:37;;;;;;;8.65;7.88;;;20.20;99.90;;;20.59;73.59;101193.25;5029640;28;20042;-66
2021/08/19 04:07:06;;;;;;;9.10;8.20;;;20.20;99.90;;;20.65;73.40;101195.72;5027967;28;20132;-67
2021/08/19 04:09:34;;;;;;;8.80;7.90;;;20.30;99.90;;;20.76;73.29;101203.31;5026732;28;20086;-67
2021/08/19 04:12:03;;;;;;;8.88;7.38;;;20.40;99.90;;;20.63;73.25;101192.19;5028694;28;20072;-66
2021/08/19 04:14:32;;;;;;;11.32;8.85;;;20.30;99.90;;;20.56;73.58;101188.00;5026551;28;20516;-66
2021/08/19 04:17:00;;;;;;;10.93;9.18;;;20.20;99.90;;;20.36;73.55;101155.69;5028614;28;20069;-66
2021/08/19 04:19:29;;;;;;;10.77;9.68;;;20.20;99.90;;;20.57;73.80;101189.75;5029174;28;20041;-67
2021/08/19 04:22:02;;;;;;;14.45;9.10;;;20.20;99.90;;;20.47;73.93;101213.44;5028756;28;20058;-67
2021/08/19 04:24:31;;;;;;;10.30;9.30;;;20.10;99.90;;;20.43;74.09;101190.31;5028979;28;20066;-66
2021/08/19 04:27:00;;;;;;;9.85;8.70;;;20.10;99.90;;;20.42;74.18;101191.22;5028869;28;20055;-67
2021/08/19 04:29:31;;;;;;;12.63;9.00;;;20.00;99.90;;;20.26;74.45;101171.28;5029064;28;20050;-67
2021/08/19 04:31:59;;;;;;;10.52;9.25;;;20.00;99.90;;;20.40;74.81;101194.94;5029122;28;20046;-67
2021/08/19 04:34:28;;;;;;;9.98;8.98;;;20.00;99.90;;;20.46;74.70;101190.19;5028019;28;20045;-67
2021/08/19 04:36:57;;;;;;;10.50;9.50;;;20.10;99.90;;;20.54;74.71;101189.88;5027993;28;20565;-67
2021/08/19 04:39:28;;;;;;;11.30;8.93;;;20.10;99.90;;;20.57;74.64;101187.06;5029287;28;20049;-68
2021/08/19 04:41:56;;;;;;;12.57;9.50;;;20.10;99.90;;;20.54;74.84;101197.94;5029033;28;20038;-67
2021/08/19 04:44:25;;;;;;;11.77;10.35;;;20.10;99.90;;;20.55;75.02;101199.69;5029191;28;20423;-68
2021/08/19 04:46:56;;;;;;;10.68;9.40;;;20.10;99.90;;;20.57;74.94;101204.09;5029265;28;20049;-68
2021/08/19 04:49:24;;;;;;;10.90;9.77;;;20.10;99.90;;;20.56;74.96;101199.63;5027861;28;20403;-69
2021/08/19 04:51:53;;;;;;;11.38;9.93;;;20.20;99.90;;;20.51;75.21;101198.94;5029245;28;20072;-70
2021/08/19 04:54:21;;;;;;;12.73;10.30;;;20.10;99.90;;;20.41;75.13;101191.28;5028918;28;20045;-70
2021/08/19 04:56:51;;;;;;;13.38;10.25;;;20.10;99.90;;;20.48;75.03;101201.75;5028904;28;20098;-71
2021/08/19 04:59:20;;;;;;;11.48;10.27;;;20.10;99.90;;;20.47;74.91;101194.63;5028944;28;20424;-70
2021/08/19 05:01:49;;;;;;;15.15;11.10;;;20.10;99.90;;;20.46;74.97;101190.19;5028594;28;20506;-71
2021/08/19 05:04:18;;;;;;;13.65;11.50;;;20.10;99.90;;;20.50;75.04;101199.88;5031387;28;20052;-70
2021/08/19 05:06:46;;;;;;;12.88;11.15;;;20.10;99.90;;;20.50;74.88;101194.50;5032205;28;20392;-69
2021/08/19 05:09:15;;;;;;;12.93;11.18;;;20.10;99.90;;;20.51;74.52;101192.69;5032615;28;20546;-68
2021/08/19 05:11:43;;;;;;;12.75;10.30;;;20.10;99.90;;;20.46;74.32;101203.63;5032002;28;20114;-68
2021/08/19 05:14:13;;;;;;;12.85;9.93;;;20.10;99.90;;;20.49;73.88;101205.31;5032330;28;20069;-68
2021/08/19 05:16:42;;;;;;;13.38;10.07;;;20.10;99.90;;;20.36;73.84;101183.41;5032320;28;20086;-68
2021/08/19 05:19:10;;;;;;;12.52;9.85;;;20.10;99.90;;;20.51;73.85;101215.06;5032179;28;20140;-68
2021/08/19 05:21:39;;;;;;;13.38;9.80;;;20.10;99.90;;;20.52;73.90;101203.38;5031946;28;20077;-68
2021/08/19 05:24:08;;;;;;;11.25;9.73;;;20.20;99.90;;;20.46;74.39;101205.44;5031924;28;20046;-68
2021/08/19 05:26:37;;;;;;;12.68;9.65;;;20.10;99.90;;;20.52;74.47;101206.06;5031985;28;20120;-69
2021/08/19 05:29:05;;;;;;;15.10;10.45;;;20.10;99.90;;;20.54;74.81;101214.94;5031798;28;20076;-68
2021/08/19 05:31:35;;;;;;;14.38;11.10;;;20.10;99.90;;;20.50;74.80;101202.56;5031635;28;20152;-68
2021/08/19 05:34:07;;;;;;;13.55;11.20;;;20.20;99.90;;;20.36;75.21;101212.97;5032589;28;20053;-68
2021/08/19 05:36:36;;;;;;;16.08;12.02;;;20.00;99.90;;;20.33;75.11;101212.22;5032031;28;20046;-69
2021/08/19 05:39:05;;;;;;;17.52;11.30;;;20.00;99.90;;;20.37;75.34;101221.91;5032373;28;20131;-68
2021/08/19 05:41:33;;;;;;;13.95;11.52;;;20.00;99.90;;;20.43;75.51;101217.19;5032529;28;20077;-70
2021/08/19 05:44:06;;;;;;;13.98;11.82;;;20.00;99.90;;;20.44;75.27;101224.28;5030529;28;20049;-70
2021/08/19 05:46:35;;;;;;;14.85;11.45;;;20.10;99.90;;;20.45;75.41;101227.88;5032027;28;20033;-70
2021/08/19 05:49:03;;;;;;;13.60;11.20;;;20.10;99.90;;;20.34;75.44;101230.13;5031045;28;20073;-69
2021/08/19 05:51:32;;;;;;;14.70;11.20;;;20.00;99.90;;;20.36;75.57;101242.53;5032155;28;20045;-69
2021/08/19 05:54:01;;;;;;;16.80;11.13;;;20.00;99.90;;;20.29;75.71;101232.97;5031710;28;20053;-69
2021/08/19 05:56:30;;;;;;;14.73;11.23;;;20.00;99.90;;;20.27;75.86;101226.78;5032097;28;20060;-69
2021/08/19 05:58:58;;;;;;;14.25;11.65;;;19.90;99.90;;;20.27;75.67;101223.19;5031757;28;20045;-68
2021/08/19 06:01:27;;;;;;;13.77;10.65;;;19.90;99.90;;;20.25;75.84;101228.63;5031827;28;20041;-68
2021/08/19 06:03:57;;;;;;;13.00;10.68;;;19.90;99.90;;;20.31;75.52;101223.03;5030684;28;20049;-69
2021/08/19 06:06:25;;;;;;;15.40;10.52;;;20.00;99.90;;;20.26;75.88;101230.41;5031834;28;20504;-68
2021/08/19 06:08:53;;;;;;;15.75;10.57;;;19.90;99.90;;;20.40;75.47;101228.03;5031555;28;20045;-69
2021/08/19 06:11:22;;;;;;;11.43;10.00;;;20.00;99.90;;;20.42;75.50;101228.84;5031660;28;20045;-69
2021/08/19 06:13:50;;;;;;;13.52;9.80;;;20.10;99.90;;;20.43;75.53;101227.94;5032094;28;20049;-70
2021/08/19 06:16:18;;;;;;;12.02;10.68;;;20.10;99.90;;;20.43;75.30;101219.00;5031391;28;20069;-69
2021/08/19 06:18:47;;;;;;;16.88;11.63;;;20.10;99.90;;;20.48;75.22;101225.94;5031394;28;20049;-68
2021/08/19 06:21:16;;;;;;;18.33;11.15;;;20.20;99.90;;;20.48;75.10;101223.25;5031489;28;20038;-68
2021/08/19 06:23:45;;;;;;;14.33;10.93;;;20.10;99.90;;;20.53;74.97;101223.06;5030979;28;20091;-69
2021/08/19 06:26:13;;;;;;;15.07;11.18;;;20.20;99.90;;;20.58;74.89;101213.88;5031078;28;20046;-69
2021/08/19 06:28:42;;;;;;;12.73;10.93;;;20.20;99.90;;;20.66;74.80;101229.69;5031592;28;20061;-70
2021/08/19 06:31:10;;;;;;;13.73;11.60;;;20.30;99.90;;;20.64;74.99;101223.50;5031087;28;20049;-67
2021/08/19 06:33:38;;;;;;;14.32;11.15;;;20.30;99.90;;;20.74;74.61;101224.00;5031307;28;20038;-70
2021/08/19 06:36:07;;;;;;;13.02;10.82;;;20.40;99.90;;;20.69;74.58;101222.38;5030106;28;20053;-69
2021/08/19 06:38:37;;;;;;;14.20;10.90;;;20.40;99.90;;;20.66;74.22;101229.69;5031527;28;20038;-67
2021/08/19 06:41:05;;;;;;;15.63;11.40;;;20.40;99.90;;;20.66;74.47;101230.59;5031348;28;20038;-66
2021/08/19 06:43:35;;;;;;;13.30;10.40;;;20.40;99.90;;;20.68;74.31;101233.22;5031134;28;20045;-70
2021/08/19 06:46:04;;;;;;;14.63;10.68;;;20.30;99.90;;;20.64;74.18;101236.97;5031086;28;20098;-70
2021/08/19 06:48:32;;;;;;;14.48;10.65;;;20.30;99.90;;;20.65;74.17;101233.34;5031200;28;20087;-70
2021/08/19 06:51:01;;;;;;;13.52;10.48;;;20.30;99.90;;;20.64;74.06;101236.97;5031027;28;20057;-69
2021/08/19 06:53:29;;;;;;;13.77;10.65;;;20.30;99.90;;;20.36;75.00;101234.47;5031303;28;20435;-69
2021/08/19 06:55:59;;;;;;;16.95;10.98;;;20.20;99.90;;;20.50;74.91;101240.19;5030934;28;20125;-69
2021/08/19 06:58:27;;;;;;;13.95;10.98;;;20.10;99.90;;;20.60;74.59;101238.00;5031295;28;20053;-68
2021/08/19 07:00:56;;;;;;;12.30;10.15;;;20.20;99.90;;;20.56;74.60;101237.25;5030876;28;20049;-69
2021/08/19 07:03:26;;;;;;;12.02;10.32;;;20.20;99.90;;;20.53;74.81;101242.78;5031149;28;20072;-70
2021/08/19 07:05:55;;;;;;;11.68;10.15;;;20.20;99.90;;;20.41;75.29;101239.69;5030941;28;20052;-69
2021/08/19 07:08:23;;;;;;;22.23;10.38;;;20.10;99.90;;;20.47;75.44;101240.31;5030819;28;20080;-68
2021/08/19 07:10:52;;;;;;;12.43;9.98;;;20.10;99.90;;;20.51;75.51;101241.97;5030728;28;20080;-68
2021/08/19 07:13:21;;;;;;;15.32;10.15;;;20.10;99.90;;;20.56;75.38;101237.25;5030630;28;20071;-68
2021/08/19 07:15:50;;;;;;;11.57;10.33;;;20.20;99.90;;;20.50;75.66;101244.69;5031177;28;20504;-69
2021/08/19 07:18:20;;;;;;;14.35;10.25;;;20.20;99.90;;;20.56;75.69;101241.75;5030792;28;20120;-68
2021/08/19 07:20:49;;;;;;;13.38;10.10;;;20.20;99.90;;;20.57;75.53;101241.72;5031122;28;20057;-68
2021/08/19 07:23:17;;;;;;;15.15;11.10;;;20.20;99.90;;;20.59;75.45;101245.22;5030398;28;20463;-67
2021/08/19 07:25:46;;;;;;;12.00;10.77;;;20.20;99.90;;;20.61;75.31;101237.94;5030234;28;20492;-70
2021/08/19 07:28:14;;;;;;;12.70;10.80;;;20.20;99.90;;;20.57;75.18;101236.34;5030730;28;20132;-68
2021/08/19 07:30:45;;;;;;;14.52;10.57;;;20.30;99.90;;;20.70;75.05;101242.09;5030731;28;20049;-68
2021/08/19 07:33:13;;;;;;;14.27;11.10;;;20.40;99.90;;;20.66;75.16;101249.41;5030546;28;20050;-69
2021/08/19 07:35:42;;;;;;;16.27;11.63;;;20.30;99.90;;;20.73;74.92;101257.25;5030559;28;20037;-68
2021/08/19 07:38:15;;;;;;;12.75;10.65;;;20.30;99.90;;;20.73;74.94;101252.72;5030468;28;20100;-69
2021/08/19 07:40:43;;;;;;;15.90;12.02;;;20.40;99.90;;;20.67;74.92;101253.84;5030360;28;20488;-69
2021/08/19 07:43:11;;;;;;;15.63;11.75;;;20.30;99.90;;;20.44;75.41;101232.38;5030520;28;20069;-69
2021/08/19 07:45:40;;;;;;;14.07;11.73;;;20.30;99.90;;;20.60;75.44;101248.75;5030241;28;20499;-69
2021/08/19 07:48:11;;;;;;;16.85;12.80;;;20.20;99.90;;;20.66;75.29;101246.72;5029129;28;20037;-69
2021/08/19 07:50:40;;;;;;;22.33;13.38;;;20.30;99.90;;;20.71;75.09;101254.63;5030226;28;20084;-69
2021/08/19 07:53:09;;;;;;;16.33;12.77;;;20.30;99.90;;;20.65;75.17;101258.41;5030057;28;20041;-68
2021/08/19 07:55:37;;;;;;;17.25;13.18;;;20.30;99.90;;;20.72;75.27;101260.84;5029977;28;20052;-68
2021/08/19 07:58:06;;;;;;;14.90;13.00;;;20.30;99.90;;;20.79;75.04;101268.59;5030094;28;20083;-69
2021/08/19 08:00:36;;;;;;;16.35;13.38;;;20.40;99.90;;;20.72;74.90;101260.84;5029973;28;20046;-69
2021/08/19 08:03:05;;;;;;;16.65;13.57;;;20.40;99.90;;;20.74;74.88;101259.84;5029923;28;20094;-70
2021/08/19 08:05:37;;;;;;;18.33;14.65;;;20.40;99.90;;;20.71;75.03;101269.88;5029922;28;20076;-69
2021/08/19 08:08:07;;;;;;;;;;;20.40;99.90;;;20.81;74.73;101268.56;5030251;28;20061;-70
2021/08/19 08:10:38;;;;;;;15.85;13.38;;;20.40;99.90;;;20.82;74.51;101270.31;5030150;28;20364;-70
2021/08/19 08:13:07;;;;;;;16.55;12.85;;;20.40;99.90;;;20.76;74.58;101270.53;5029781;28;20052;-69
2021/08/19 08:15:36;;;;;;;16.80;12.80;;;20.40;99.90;;;20.77;74.29;101275.84;5029806;28;20083;-68
2021/08/19 08:18:05;;;;;;;13.93;12.48;;;20.40;99.90;;;20.77;74.48;101277.69;5028739;28;20073;-69
2021/08/19 08:20:35;;;;;;;15.38;12.75;;;20.40;99.90;;;20.63;74.78;101284.47;5030077;28;20106;-69
2021/08/19 08:23:04;;;;;;;16.20;14.05;;;20.30;99.90;;;20.79;74.68;101282.03;5029803;28;20553;-69
2021/08/19 08:25:34;;;;;;;15.23;12.52;;;20.40;99.90;;;20.82;74.53;101281.94;5030020;28;20154;-69
2021/08/19 08:28:08;;;;;;;15.80;12.23;;;20.40;99.90;;;20.71;74.74;101277.94;5028649;28;20496;-70
2021/08/19 08:30:38;;;;;;;16.92;13.82;;;20.40;99.90;;;20.84;74.68;101292.63;5029617;28;20287;-69
2021/08/19 08:33:10;;;;;;;17.15;13.45;;;20.40;99.90;;;20.76;74.73;101282.19;5029690;28;20050;-70
2021/08/19 08:35:40;;;;;;;20.38;13.50;;;20.40;99.90;;;20.62;75.15;101280.03;5029478;28;20124;-70
2021/08/19 08:38:11;;;;;;;13.23;11.88;;;20.30;99.90;;;20.70;75.16;101290.50;5030693;28;20073;-70
2021/08/19 08:40:43;;;;;;;17.23;13.45;;;20.30;99.90;;;20.75;74.74;101287.63;5033413;28;20050;-70
2021/08/19 08:43:11;;;;;;;13.70;11.63;;;20.40;99.90;;;20.70;74.99;101287.81;5033394;28;20069;-70
2021/08/19 08:45:45;;;;;;;18.70;11.40;;;20.30;99.90;;;20.80;74.83;101293.69;5033122;28;20051;-70
2021/08/19 08:48:16;;;;;;;13.38;11.98;;;20.40;99.90;;;20.86;74.97;101299.72;5033196;28;20045;-70
2021/08/19 08:50:48;;;;;;;17.65;12.48;;;20.50;99.90;;;20.93;74.54;101303.91;5033273;28;20094;-70
2021/08/19 08:53:17;;;;;;;13.20;11.80;;;20.50;99.90;;;20.87;74.46;101300.56;5032881;28;20066;-69
2021/08/19 08:55:46;;;;;;;16.65;12.07;;;20.50;99.90;;;20.86;74.30;101306.91;5032792;28;20056;-69
2021/08/19 08:58:16;;;;;;;14.15;11.90;;;20.50;99.90;;;20.85;74.26;101300.63;5031822;28;20045;-68
2021/08/19 09:00:46;;;;;;;14.10;12.27;;;20.50;99.90;;;20.81;74.48;101308.91;5032629;28;20110;-66
2021/08/19 09:03:17;;;;;;;15.02;12.77;;;20.40;99.90;;;20.71;74.80;101311.09;5033064;28;20049;-68
2021/08/19 09:05:49;;;;;;;15.35;12.32;;;20.40;99.90;;;20.78;74.90;101319.75;5032378;28;20453;-68
2021/08/19 09:08:20;;;;;;;20.70;12.18;;;20.40;99.90;;;20.80;74.94;101302.66;5032890;28;20483;-68
2021/08/19 09:10:50;;;;;;;18.85;12.98;;;20.40;99.90;;;20.86;74.58;101305.09;5032874;28;20045;-68
2021/08/19 09:13:24;;;;;;;16.20;12.73;;;20.50;99.90;;;20.94;74.80;101304.78;5032844;28;20045;-68
2021/08/19 09:15:53;;;;;;;16.55;12.57;;;20.60;99.90;;;21.03;74.77;101313.41;5032399;28;20049;-68
2021/08/19 09:18:31;;;;;;;15.27;13.20;;;20.60;99.90;;;21.10;74.59;101314.03;5032437;28;20045;-68
2021/08/19 09:21:02;;;;;;;16.05;12.90;;;20.70;99.90;;;20.89;74.42;101299.56;5032482;28;20124;-68
2021/08/19 09:23:30;;;;;;;14.65;13.13;;;20.60;99.90;;;20.94;74.55;101302.97;5032734;28;20069;-69
2021/08/19 09:26:03;;;;;;;14.55;12.98;;;20.50;99.90;;;20.93;74.68;101308.41;5032229;28;20449;-69
2021/08/19 09:28:32;;;;;;;14.48;12.80;;;20.50;99.90;;;21.05;74.37;101313.31;5032372;28;20114;-68
2021/08/19 09:31:05;;;;;;;18.70;13.07;;;20.60;99.90;;;21.00;74.20;101307.22;5032697;28;20418;-68
2021/08/19 09:33:37;;;;;;;14.95;12.40;;;20.70;99.90;;;21.01;74.03;101307.19;5032249;28;20081;-68
2021/08/19 09:36:08;;;;;;;12.85;11.35;;;20.60;99.90;;;20.91;73.85;101304.88;5032182;28;20041;-68
2021/08/19 09:38:38;;;;;;;15.75;11.43;;;20.60;99.90;;;20.99;73.62;101314.41;5032731;28;20037;-68
2021/08/19 09:41:12;;;;;;;13.63;11.18;;;20.60;99.90;;;21.10;73.35;101311.34;5032182;28;20041;-68
2021/08/19 09:43:44;;;;;;;13.20;11.80;;;20.60;99.90;;;20.94;73.61;101304.78;5031774;28;20499;-68
2021/08/19 09:46:14;;;;;;;16.98;12.57;;;20.60;99.90;;;21.04;73.69;101311.59;5031315;28;20492;-68
2021/08/19 09:48:43;;;;;;;16.00;12.52;;;20.60;99.90;;;21.14;73.74;101315.63;5031107;28;20072;-68
2021/08/19 09:51:20;;;;;;;13.88;11.15;;;20.70;99.90;;;21.12;73.91;101314.81;5031471;28;20124;-69
2021/08/19 09:53:50;;;;;;;14.55;11.82;;;20.80;99.90;;;21.11;74.13;101313.97;5031402;28;20129;-68
2021/08/19 09:56:30;;;;;;;12.38;11.18;;;20.70;99.90;;;21.07;74.38;101316.84;5031688;28;20064;-69
2021/08/19 09:59:19;;;;;;;12.93;10.93;;;20.60;99.90;;;20.97;74.35;101312.72;5031254;28;20041;-69
2021/08/19 10:01:47;;;;;;;12.88;10.60;;;20.60;99.90;;;21.04;74.57;101319.66;5031436;28;20095;-69
2021/08/19 10:04:16;;;;;;;14.10;9.90;;;20.60;99.90;;;21.09;74.30;101310.47;5031002;28;20038;-68
2021/08/19 10:06:46;;;;;;;11.60;10.35;;;20.60;99.90;;;21.11;74.42;101313.09;5031060;28;20054;-69
2021/08/19 10:09:15;;;;;;;12.00;10.80;;;20.70;99.90;;;21.17;74.98;101323.59;5031253;28;20128;-69
2021/08/19 10:11:49;;;;;;;12.68;10.50;;;20.70;99.90;;;21.17;75.22;101316.41;5030897;28;20045;-70